Blue Bell, PA (19422)

2:05 PM EST on February 08, 2016 (GMT -0500)
world1960 | | Change Station
CLOSE
Current Station
Personal Weather Station
Location: Ambler, PA
Elevation: 243 ft
Nearby Weather Stations

Elev 243 ft 40.15 °N, 75.25 °W | Updated 14 minutes ago

Overcast
Overcast
41.5 °F
Feels Like 42 °F
N
2.2
Wind Variable Wind from SE

Today
High -- | Low -- °F
--% Chance of Precip.
Yesterday
High -- | Low -- °F
Precip. -- in
Pressure 29.71 in
Visibility 10.0 miles
Clouds Overcast 3300 ft
Windchill 42 °F
Dew Point 29 °F
Humidity 61%
Rainfall 0.00 in
Snow Depth Not available.
7:03 AM 5:27 PM
New Moon, 0% visible
METAR KDYL 081854Z AUTO 08005KT 10SM OVC033 04/M05 A2969 RMK AO2 SLP060 T00391050
Pressure 29.71 in
Visibility 10.0 miles
Clouds Overcast 3300 ft
Windchill 42 °F
Dew Point 29 °F
Humidity 61%
Rainfall 0.00 in
Snow Depth Not available.
7:03 AM 5:27 PM
New Moon, 0% visible
METAR KDYL 081854Z AUTO 08005KT 10SM OVC033 04/M05 A2969 RMK AO2 SLP060 T00391050
Winter Storm will continue impacting eastern New England through Monday night with a combination of heavy snow and strong winds, resulting in dangerous travel conditions. In parts of southeast Massachusetts, blizzard conditions are possible along with tree damage, some power outages and coastal flooding. As of late Monday morning, winds had gusted up to 57 mph on Nantucket Island and coastal flooding was reported in several locations along the Massachusetts coast.

10-Day Weather Forecast

Almanac

Astronomy

Feb. 08, 2016 Rise Set
Actual Time
Civil Twilight
Nautical Twilight
Astronomical Twilight
Moon
Length of Visible Light
Length of Day
Tomorrow will be .
, % of the Moon is Illuminated

Today's Extremes

State Highs State Lows

Community

WunderPhotos

Upload Photos

1,891,485 photos uploaded!

WunderBlog® & News

Nearby

Air Quality

  Air Quality AQ Index Pollutant
Not available.

Snow Depth

Station Depth Elevation

Earthquake Activity

City Distance Mag. Time & Date
Minimum magnitude displayed is 2.5.

Coastal Water Temperatures

Place Temperature

Stations

Nearby Weather Stations

Station Location Temp. Windchill Dew Point Humidity Wind Precip. Elev Updated Type
                   

Watches & Warnings

There are currently no watches in effect.